Last 24 Hours

Squaw-Siberia 8700'

Hourly Data | America/Los_Angeles
as of 5/30/20 8:57 PM PDT
Date & Time Temp (°F) RH (%) Dew Pt (°F) Wet Bulb (°F) Wind Dir (°) Wind Spd (mph) Wind Gust (mph) WindChill (°F) Daily Min Temp (°F) Daily Max Temp (°F)
5/30/20 - 2000 34.0 100 34.0 34.0 SSE | 158 0.0 0.1 33.3 32.3 52.5
5/30/20 - 1900 33.1 99 32.8 33.0 SSE | 158 0.0 0.1 33.5 32.3 52.5
5/30/20 - 1800 33.4 100 33.4 33.4 SSE | 156 0.0 0.1 33.7 32.3 52.5
5/30/20 - 1700 33.2 100 33.2 33.2 SSE | 157 0.0 0.1 33.4 32.3 52.5
5/30/20 - 1600 33.0 100 33.0 33.0 SSE | 162 0.0 0.1 34.5 32.9 52.5
5/30/20 - 1500 36.5 97 35.8 36.1 SSE | 161 0.0 0.1 36.5 33.9 52.5
5/30/20 - 1400 36.4 100 36.4 36.4 SSE | 160 0.0 0.1 35.9 33.9 52.5
5/30/20 - 1300 35.6 100 35.6 35.6 SSE | 159 0.0 0.1 36.4 33.9 52.5
5/30/20 - 1200 35.2 100 35.2 35.2 SSE | 159 0.0 0.1 35.0 33.9 52.5
5/30/20 - 1100 36.0 100 36.0 36.0 SSE | 156 0.0 0.1 35.1 34.0 52.5
5/30/20 - 1000 34.9 100 34.9 34.9 SSE | 156 0.0 0.1 35.2 34.1 52.5
5/30/20 - 0900 34.6 100 34.6 34.6 SSE | 156 0.0 0.1 34.5 34.1 52.5
5/30/20 - 0800 34.2 100 34.2 34.2 SSE | 157 0.0 0.1 36.1 34.2 52.5
5/30/20 - 0700 38.3 100 38.3 38.3 SSE | 156 0.0 0.1 39.8 38.3 52.5
5/30/20 - 0600 41.9 100 41.9 41.9 SSE | 155 0.0 0.1 43.1 41.9 52.5
5/30/20 - 0500 43.4 100 43.4 43.4 SSE | 156 0.0 0.1 44.1 43.4 52.5
5/30/20 - 0400 44.9 100 44.9 44.9 SSE | 157 0.0 0.1 45.8 44.9 52.5
5/30/20 - 0300 45.9 100 45.9 45.9 SSE | 159 0.0 0.1 46.3 45.8 52.5
5/30/20 - 0200 47.7 100 47.7 47.7 SSE | 160 0.0 0.1 47.9 47.3 52.5
5/30/20 - 0100 48.2 99 48.0 48.1 SSE | 162 0.0 0.1 48.7 47.3 52.5
5/30/20 - 0000 52.1 58 37.8 44.4 SSE | 162 0.0 0.1 54.2 51.5 69.8
5/29/20 - 2300 54.9 51 37.2 45.3 SSE | 161 0.0 0.1 57.2 51.6 69.8
5/29/20 - 2200 56.8 45 35.9 45.6 N | 0 0.0 0.1 55.4 51.6 69.8
5/29/20 - 2100 56.5 50 38.0 46.3 N | 0 0.0 0.1 56.7 51.6 69.8
5/29/20 - 2000 55.7 49 36.6 45.4 SSE | 161 0.0 0.1 54.9 51.6 69.8
Max 56.8 100 48.0 48.1 - 0.0 0.1 57.2 51.6 69.8
Avg 41.5 90 37.8 39.5 - 0.0 0.1 41.9 - -
Min 33.0 45 32.8 33.0 - 0.0 0.1 33.3 32.3 52.5